<?xml version='1.0' encoding='UTF-8'?><gpx version="1.1" creator="JPX - https://github.com/jenetics/jpx" xmlns="http://www.topografix.com/GPX/1/1"><trk><trkseg><trkpt lat="40.8937925" lon="14.2878408"><ele>80.0</ele><time>2026-04-22T10:52:29.242Z</time></trkpt><trkpt lat="40.8939375" lon="14.287852"><ele>80.0</ele><time>2026-04-22T10:52:35.391Z</time></trkpt><trkpt lat="40.8938683" lon="14.2879433"><ele>80.0</ele><time>2026-04-22T10:52:48.175Z</time></trkpt><trkpt lat="40.893915" lon="14.2878167"><ele>80.0</ele><time>2026-04-22T10:52:52.173Z</time></trkpt><trkpt lat="40.893855" lon="14.2877533"><ele>80.0</ele><time>2026-04-22T10:52:59.074Z</time></trkpt><trkpt lat="40.8938383" lon="14.287665"><ele>80.0</ele><time>2026-04-22T10:53:01.077Z</time></trkpt><trkpt lat="40.8938183" lon="14.287585"><ele>80.0</ele><time>2026-04-22T10:53:03.076Z</time></trkpt><trkpt lat="40.8938167" lon="14.2874967"><ele>80.0</ele><time>2026-04-22T10:53:05.077Z</time></trkpt><trkpt lat="40.8937983" lon="14.2874017"><ele>80.0</ele><time>2026-04-22T10:53:07.076Z</time></trkpt><trkpt lat="40.8937817" lon="14.2873133"><ele>80.0</ele><time>2026-04-22T10:53:09.078Z</time></trkpt><trkpt lat="40.8937517" lon="14.287235"><ele>80.0</ele><time>2026-04-22T10:53:11.077Z</time></trkpt><trkpt lat="40.8937167" lon="14.2871467"><ele>80.0</ele><time>2026-04-22T10:53:13.076Z</time></trkpt><trkpt lat="40.8937083" lon="14.2870467"><ele>80.0</ele><time>2026-04-22T10:53:15.076Z</time></trkpt><trkpt lat="40.8936817" lon="14.286955"><ele>80.0</ele><time>2026-04-22T10:53:17.076Z</time></trkpt><trkpt lat="40.8936583" lon="14.286865"><ele>80.0</ele><time>2026-04-22T10:53:19.076Z</time></trkpt><trkpt lat="40.8936383" lon="14.2867783"><ele>80.0</ele><time>2026-04-22T10:53:21.078Z</time></trkpt><trkpt lat="40.8936117" lon="14.2866933"><ele>80.0</ele><time>2026-04-22T10:53:23.077Z</time></trkpt><trkpt lat="40.89357" lon="14.2865867"><ele>80.0</ele><time>2026-04-22T10:53:26.076Z</time></trkpt><trkpt lat="40.89354" lon="14.2865067"><ele>80.0</ele><time>2026-04-22T10:53:28.076Z</time></trkpt><trkpt lat="40.8935133" lon="14.2864283"><ele>80.14285714285714</ele><time>2026-04-22T10:53:30.077Z</time></trkpt><trkpt lat="40.8934967" lon="14.286335"><ele>80.28571428571429</ele><time>2026-04-22T10:53:32.076Z</time></trkpt><trkpt lat="40.893475" lon="14.286255"><ele>80.42857142857143</ele><time>2026-04-22T10:53:34.076Z</time></trkpt><trkpt lat="40.893455" lon="14.2861717"><ele>80.57142857142857</ele><time>2026-04-22T10:53:36.077Z</time></trkpt><trkpt lat="40.8935133" lon="14.286095"><ele>80.71428571428571</ele><time>2026-04-22T10:53:39.078Z</time></trkpt><trkpt lat="40.8935783" lon="14.2860933"><ele>80.85714285714286</ele><time>2026-04-22T10:53:41.078Z</time></trkpt><trkpt lat="40.893645" lon="14.28611"><ele>81.0</ele><time>2026-04-22T10:53:43.078Z</time></trkpt><trkpt lat="40.89373" lon="14.286095"><ele>81.0</ele><time>2026-04-22T10:53:46.076Z</time></trkpt><trkpt lat="40.8937983" lon="14.28609"><ele>81.0</ele><time>2026-04-22T10:53:48.076Z</time></trkpt><trkpt lat="40.893865" lon="14.2860767"><ele>81.0</ele><time>2026-04-22T10:53:50.078Z</time></trkpt><trkpt lat="40.89394" lon="14.2860733"><ele>81.0</ele><time>2026-04-22T10:53:52.077Z</time></trkpt><trkpt lat="40.89401" lon="14.2860767"><ele>81.0</ele><time>2026-04-22T10:53:54.077Z</time></trkpt><trkpt lat="40.89409" lon="14.28609"><ele>81.0</ele><time>2026-04-22T10:53:56.078Z</time></trkpt><trkpt lat="40.8941833" lon="14.286115"><ele>80.83333333333333</ele><time>2026-04-22T10:53:58.077Z</time></trkpt><trkpt lat="40.8942733" lon="14.2861567"><ele>80.66666666666667</ele><time>2026-04-22T10:54:00.078Z</time></trkpt><trkpt lat="40.8943733" lon="14.2861617"><ele>80.5</ele><time>2026-04-22T10:54:02.078Z</time></trkpt><trkpt lat="40.89444" lon="14.2861917"><ele>80.33333333333334</ele><time>2026-04-22T10:54:03.077Z</time></trkpt><trkpt lat="40.89452" lon="14.2862117"><ele>80.16666666666667</ele><time>2026-04-22T10:54:05.077Z</time></trkpt><trkpt lat="40.8946133" lon="14.2862283"><ele>80.0</ele><time>2026-04-22T10:54:07.077Z</time></trkpt><trkpt lat="40.8946983" lon="14.28624"><ele>80.0</ele><time>2026-04-22T10:54:09.078Z</time></trkpt><trkpt lat="40.8947767" lon="14.2862533"><ele>80.0</ele><time>2026-04-22T10:54:11.077Z</time></trkpt><trkpt lat="40.894855" lon="14.2862767"><ele>80.0</ele><time>2026-04-22T10:54:13.077Z</time></trkpt><trkpt lat="40.8949467" lon="14.28628"><ele>80.0</ele><time>2026-04-22T10:54:15.077Z</time></trkpt><trkpt lat="40.8950967" lon="14.2862717"><ele>80.0</ele><time>2026-04-22T10:54:18.077Z</time></trkpt><trkpt lat="40.89521" lon="14.2862717"><ele>79.6</ele><time>2026-04-22T10:54:20.078Z</time></trkpt><trkpt lat="40.8953233" lon="14.2862833"><ele>79.2</ele><time>2026-04-22T10:54:22.078Z</time></trkpt><trkpt lat="40.8954333" lon="14.2863017"><ele>78.8</ele><time>2026-04-22T10:54:24.077Z</time></trkpt><trkpt lat="40.8955417" lon="14.2863017"><ele>78.4</ele><time>2026-04-22T10:54:26.08Z</time></trkpt><trkpt lat="40.895635" lon="14.2862983"><ele>78.0</ele><time>2026-04-22T10:54:28.078Z</time></trkpt><trkpt lat="40.89573" lon="14.2863067"><ele>78.0</ele><time>2026-04-22T10:54:30.078Z</time></trkpt><trkpt lat="40.89582" lon="14.2863133"><ele>78.0</ele><time>2026-04-22T10:54:32.079Z</time></trkpt><trkpt lat="40.8959183" lon="14.2863217"><ele>78.0</ele><time>2026-04-22T10:54:34.078Z</time></trkpt><trkpt lat="40.8960133" lon="14.2863333"><ele>78.0</ele><time>2026-04-22T10:54:36.079Z</time></trkpt><trkpt lat="40.8961083" lon="14.2863517"><ele>78.0</ele><time>2026-04-22T10:54:38.078Z</time></trkpt><trkpt lat="40.8962" lon="14.2863617"><ele>78.33333333333333</ele><time>2026-04-22T10:54:40.076Z</time></trkpt><trkpt lat="40.8962917" lon="14.286365"><ele>78.66666666666667</ele><time>2026-04-22T10:54:42.079Z</time></trkpt><trkpt lat="40.8963767" lon="14.2863917"><ele>79.0</ele><time>2026-04-22T10:54:44.077Z</time></trkpt><trkpt lat="40.8964633" lon="14.2864183"><ele>79.33333333333334</ele><time>2026-04-22T10:54:46.076Z</time></trkpt><trkpt lat="40.8965517" lon="14.2864483"><ele>79.66666666666667</ele><time>2026-04-22T10:54:48.079Z</time></trkpt><trkpt lat="40.8966333" lon="14.2864833"><ele>80.0</ele><time>2026-04-22T10:54:50.079Z</time></trkpt><trkpt lat="40.8967017" lon="14.2864583"><ele>80.4</ele><time>2026-04-22T10:54:52.077Z</time></trkpt><trkpt lat="40.8967717" lon="14.2864067"><ele>80.8</ele><time>2026-04-22T10:54:54.078Z</time></trkpt><trkpt lat="40.896835" lon="14.2863267"><ele>81.19999999999999</ele><time>2026-04-22T10:54:56.078Z</time></trkpt><trkpt lat="40.896895" lon="14.28623"><ele>81.6</ele><time>2026-04-22T10:54:58.077Z</time></trkpt><trkpt lat="40.8969633" lon="14.2861283"><ele>82.0</ele><time>2026-04-22T10:55:00.079Z</time></trkpt><trkpt lat="40.89702" lon="14.2860267"><ele>82.0</ele><time>2026-04-22T10:55:02.08Z</time></trkpt><trkpt lat="40.8970817" lon="14.285925"><ele>82.0</ele><time>2026-04-22T10:55:04.077Z</time></trkpt><trkpt lat="40.8971517" lon="14.2858233"><ele>82.0</ele><time>2026-04-22T10:55:06.079Z</time></trkpt><trkpt lat="40.897215" lon="14.2857017"><ele>82.0</ele><time>2026-04-22T10:55:08.078Z</time></trkpt><trkpt lat="40.8972783" lon="14.2855917"><ele>82.0</ele><time>2026-04-22T10:55:10.077Z</time></trkpt><trkpt lat="40.8973567" lon="14.2854967"><ele>81.8</ele><time>2026-04-22T10:55:12.078Z</time></trkpt><trkpt lat="40.8974333" lon="14.2854017"><ele>81.6</ele><time>2026-04-22T10:55:14.079Z</time></trkpt><trkpt lat="40.8975" lon="14.2853033"><ele>81.39999999999999</ele><time>2026-04-22T10:55:16.077Z</time></trkpt><trkpt lat="40.8975683" lon="14.2852017"><ele>81.19999999999999</ele><time>2026-04-22T10:55:18.077Z</time></trkpt><trkpt lat="40.8976317" lon="14.2851033"><ele>81.0</ele><time>2026-04-22T10:55:20.078Z</time></trkpt><trkpt lat="40.8976883" lon="14.285005"><ele>80.8</ele><time>2026-04-22T10:55:22.076Z</time></trkpt><trkpt lat="40.8977467" lon="14.2849017"><ele>80.6</ele><time>2026-04-22T10:55:24.078Z</time></trkpt><trkpt lat="40.8978117" lon="14.2847983"><ele>80.4</ele><time>2026-04-22T10:55:26.076Z</time></trkpt><trkpt lat="40.8978867" lon="14.2847017"><ele>80.2</ele><time>2026-04-22T10:55:28.078Z</time></trkpt><trkpt lat="40.89796" lon="14.28461"><ele>80.0</ele><time>2026-04-22T10:55:30.077Z</time></trkpt><trkpt lat="40.8980117" lon="14.2845383"><ele>80.0</ele><time>2026-04-22T10:55:32.077Z</time></trkpt><trkpt lat="40.89806" lon="14.2844667"><ele>80.0</ele><time>2026-04-22T10:55:35.076Z</time></trkpt><trkpt lat="40.8981467" lon="14.2845267"><ele>80.0</ele><time>2026-04-22T10:55:39.077Z</time></trkpt><trkpt lat="40.8982217" lon="14.2846167"><ele>80.0</ele><time>2026-04-22T10:55:41.077Z</time></trkpt><trkpt lat="40.8982967" lon="14.2847117"><ele>80.0</ele><time>2026-04-22T10:55:43.077Z</time></trkpt><trkpt lat="40.89836" lon="14.2848133"><ele>80.0</ele><time>2026-04-22T10:55:45.078Z</time></trkpt><trkpt lat="40.8984167" lon="14.2848883"><ele>80.0</ele><time>2026-04-22T10:55:47.078Z</time></trkpt><trkpt lat="40.89847" lon="14.2849383"><ele>80.0</ele><time>2026-04-22T10:55:49.077Z</time></trkpt><trkpt lat="40.8985183" lon="14.285"><ele>80.0</ele><time>2026-04-22T10:55:51.077Z</time></trkpt><trkpt lat="40.8985767" lon="14.2850833"><ele>80.0</ele><time>2026-04-22T10:55:53.078Z</time></trkpt><trkpt lat="40.89865" lon="14.2851683"><ele>80.0</ele><time>2026-04-22T10:55:55.078Z</time></trkpt><trkpt lat="40.898735" lon="14.2852517"><ele>80.2</ele><time>2026-04-22T10:55:57.076Z</time></trkpt><trkpt lat="40.8988233" lon="14.2853183"><ele>80.4</ele><time>2026-04-22T10:55:59.078Z</time></trkpt><trkpt lat="40.8989183" lon="14.2853783"><ele>80.6</ele><time>2026-04-22T10:56:01.077Z</time></trkpt><trkpt lat="40.89901" lon="14.28545"><ele>80.8</ele><time>2026-04-22T10:56:03.075Z</time></trkpt><trkpt lat="40.8991067" lon="14.2855317"><ele>81.0</ele><time>2026-04-22T10:56:05.077Z</time></trkpt><trkpt lat="40.8992083" lon="14.2856"><ele>81.6</ele><time>2026-04-22T10:56:07.077Z</time></trkpt><trkpt lat="40.8993217" lon="14.2856483"><ele>82.19999999999999</ele><time>2026-04-22T10:56:09.077Z</time></trkpt><trkpt lat="40.8993817" lon="14.285675"><ele>82.80000000000001</ele><time>2026-04-22T10:56:10.079Z</time></trkpt><trkpt lat="40.899495" lon="14.28573"><ele>83.4</ele><time>2026-04-22T10:56:12.078Z</time></trkpt><trkpt lat="40.8996033" lon="14.2857833"><ele>84.0</ele><time>2026-04-22T10:56:14.077Z</time></trkpt><trkpt lat="40.89971" lon="14.2858383"><ele>84.0</ele><time>2026-04-22T10:56:16.076Z</time></trkpt><trkpt lat="40.8998133" lon="14.2858933"><ele>84.0</ele><time>2026-04-22T10:56:18.077Z</time></trkpt><trkpt lat="40.8999167" lon="14.2859617"><ele>84.0</ele><time>2026-04-22T10:56:20.076Z</time></trkpt><trkpt lat="40.90001" lon="14.28603"><ele>84.0</ele><time>2026-04-22T10:56:22.077Z</time></trkpt><trkpt lat="40.9001017" lon="14.2860467"><ele>84.0</ele><time>2026-04-22T10:56:25.077Z</time></trkpt><trkpt lat="40.90019" lon="14.2860617"><ele>84.33333333333333</ele><time>2026-04-22T10:56:28.076Z</time></trkpt><trkpt lat="40.9002633" lon="14.2860783"><ele>84.66666666666667</ele><time>2026-04-22T10:56:30.077Z</time></trkpt><trkpt lat="40.9003483" lon="14.2860933"><ele>85.0</ele><time>2026-04-22T10:56:32.077Z</time></trkpt><trkpt lat="40.9004433" lon="14.2860967"><ele>85.33333333333334</ele><time>2026-04-22T10:56:34.078Z</time></trkpt><trkpt lat="40.9005417" lon="14.2860917"><ele>85.66666666666667</ele><time>2026-04-22T10:56:36.076Z</time></trkpt><trkpt lat="40.9006333" lon="14.2860833"><ele>86.0</ele><time>2026-04-22T10:56:38.078Z</time></trkpt><trkpt lat="40.9007183" lon="14.2860717"><ele>86.0</ele><time>2026-04-22T10:56:40.076Z</time></trkpt><trkpt lat="40.90083" lon="14.2860817"><ele>86.0</ele><time>2026-04-22T10:56:42.077Z</time></trkpt><trkpt lat="40.9009217" lon="14.2860633"><ele>86.0</ele><time>2026-04-22T10:56:44.078Z</time></trkpt><trkpt lat="40.9010183" lon="14.2860333"><ele>86.0</ele><time>2026-04-22T10:56:46.076Z</time></trkpt><trkpt lat="40.90112" lon="14.2860067"><ele>86.0</ele><time>2026-04-22T10:56:48.077Z</time></trkpt><trkpt lat="40.90123" lon="14.2859767"><ele>86.0</ele><time>2026-04-22T10:56:50.078Z</time></trkpt><trkpt lat="40.9013417" lon="14.2859417"><ele>86.0</ele><time>2026-04-22T10:56:52.076Z</time></trkpt><trkpt lat="40.901445" lon="14.2858983"><ele>86.0</ele><time>2026-04-22T10:56:54.078Z</time></trkpt><trkpt lat="40.9015467" lon="14.2858567"><ele>86.0</ele><time>2026-04-22T10:56:56.077Z</time></trkpt><trkpt lat="40.9016467" lon="14.2858217"><ele>86.0</ele><time>2026-04-22T10:56:58.077Z</time></trkpt><trkpt lat="40.9017517" lon="14.2857767"><ele>86.0</ele><time>2026-04-22T10:57:00.076Z</time></trkpt><trkpt lat="40.901875" lon="14.2857583"><ele>86.0</ele><time>2026-04-22T10:57:02.077Z</time></trkpt><trkpt lat="40.9019983" lon="14.2857417"><ele>86.0</ele><time>2026-04-22T10:57:04.077Z</time></trkpt><trkpt lat="40.9020633" lon="14.285735"><ele>86.0</ele><time>2026-04-22T10:57:05.078Z</time></trkpt><trkpt lat="40.90213" lon="14.2857217"><ele>86.0</ele><time>2026-04-22T10:57:06.078Z</time></trkpt><trkpt lat="40.9021917" lon="14.2857033"><ele>86.0</ele><time>2026-04-22T10:57:07.078Z</time></trkpt><trkpt lat="40.9022533" lon="14.28568"><ele>86.0</ele><time>2026-04-22T10:57:08.078Z</time></trkpt><trkpt lat="40.9023733" lon="14.28563"><ele>86.0</ele><time>2026-04-22T10:57:10.076Z</time></trkpt><trkpt lat="40.902495" lon="14.2855883"><ele>86.0</ele><time>2026-04-22T10:57:12.076Z</time></trkpt><trkpt lat="40.9026083" lon="14.2855567"><ele>86.0</ele><time>2026-04-22T10:57:14.077Z</time></trkpt><trkpt lat="40.902715" lon="14.2855333"><ele>85.6</ele><time>2026-04-22T10:57:16.077Z</time></trkpt><trkpt lat="40.9028117" lon="14.2855117"><ele>85.19999999999999</ele><time>2026-04-22T10:57:18.076Z</time></trkpt><trkpt lat="40.9029067" lon="14.285485"><ele>84.80000000000001</ele><time>2026-04-22T10:57:20.077Z</time></trkpt><trkpt lat="40.9029717" lon="14.2854667"><ele>84.4</ele><time>2026-04-22T10:57:21.076Z</time></trkpt><trkpt lat="40.9030767" lon="14.2854383"><ele>84.0</ele><time>2026-04-22T10:57:23.077Z</time></trkpt><trkpt lat="40.9031833" lon="14.285405"><ele>84.0</ele><time>2026-04-22T10:57:25.075Z</time></trkpt><trkpt lat="40.9032933" lon="14.2853683"><ele>84.0</ele><time>2026-04-22T10:57:27.078Z</time></trkpt><trkpt lat="40.9034017" lon="14.285335"><ele>84.0</ele><time>2026-04-22T10:57:29.076Z</time></trkpt><trkpt lat="40.903505" lon="14.2853033"><ele>84.0</ele><time>2026-04-22T10:57:31.076Z</time></trkpt><trkpt lat="40.90361" lon="14.28527"><ele>84.0</ele><time>2026-04-22T10:57:33.078Z</time></trkpt><trkpt lat="40.903715" lon="14.285235"><ele>83.2</ele><time>2026-04-22T10:57:35.077Z</time></trkpt><trkpt lat="40.9038283" lon="14.2852"><ele>82.4</ele><time>2026-04-22T10:57:37.076Z</time></trkpt><trkpt lat="40.9039367" lon="14.285175"><ele>81.6</ele><time>2026-04-22T10:57:39.077Z</time></trkpt><trkpt lat="40.904045" lon="14.2851533"><ele>80.8</ele><time>2026-04-22T10:57:41.078Z</time></trkpt><trkpt lat="40.9041417" lon="14.2851283"><ele>80.0</ele><time>2026-04-22T10:57:43.078Z</time></trkpt><trkpt lat="40.904245" lon="14.2851"><ele>79.8</ele><time>2026-04-22T10:57:45.077Z</time></trkpt><trkpt lat="40.9043533" lon="14.28508"><ele>79.6</ele><time>2026-04-22T10:57:47.075Z</time></trkpt><trkpt lat="40.9044617" lon="14.2850517"><ele>79.4</ele><time>2026-04-22T10:57:49.074Z</time></trkpt><trkpt lat="40.9045483" lon="14.285025"><ele>79.2</ele><time>2026-04-22T10:57:51.076Z</time></trkpt><trkpt lat="40.9046167" lon="14.284995"><ele>79.0</ele><time>2026-04-22T10:57:54.077Z</time></trkpt><trkpt lat="40.904695" lon="14.28496"><ele>79.0</ele><time>2026-04-22T10:57:57.078Z</time></trkpt><trkpt lat="40.90477" lon="14.2849483"><ele>79.0</ele><time>2026-04-22T10:57:59.075Z</time></trkpt><trkpt lat="40.90484" lon="14.2849317"><ele>79.0</ele><time>2026-04-22T10:58:01.076Z</time></trkpt><trkpt lat="40.9049117" lon="14.2848983"><ele>79.0</ele><time>2026-04-22T10:58:03.078Z</time></trkpt><trkpt lat="40.90499" lon="14.2848617"><ele>79.0</ele><time>2026-04-22T10:58:05.076Z</time></trkpt><trkpt lat="40.9050767" lon="14.2848333"><ele>79.0</ele><time>2026-04-22T10:58:07.077Z</time></trkpt><trkpt lat="40.9051633" lon="14.2848067"><ele>79.0</ele><time>2026-04-22T10:58:09.077Z</time></trkpt><trkpt lat="40.90525" lon="14.2847833"><ele>79.0</ele><time>2026-04-22T10:58:11.077Z</time></trkpt><trkpt lat="40.9053483" lon="14.2847533"><ele>79.0</ele><time>2026-04-22T10:58:13.076Z</time></trkpt><trkpt lat="40.90545" lon="14.28473"><ele>79.0</ele><time>2026-04-22T10:58:15.077Z</time></trkpt><trkpt lat="40.9055617" lon="14.2847117"><ele>79.0</ele><time>2026-04-22T10:58:17.078Z</time></trkpt><trkpt lat="40.9056683" lon="14.2846883"><ele>79.0</ele><time>2026-04-22T10:58:19.076Z</time></trkpt><trkpt lat="40.90578" lon="14.2846783"><ele>79.0</ele><time>2026-04-22T10:58:21.077Z</time></trkpt><trkpt lat="40.9058817" lon="14.2846833"><ele>79.0</ele><time>2026-04-22T10:58:23.077Z</time></trkpt><trkpt lat="40.90598" lon="14.2847017"><ele>79.0</ele><time>2026-04-22T10:58:25.077Z</time></trkpt><trkpt lat="40.9060733" lon="14.284725"><ele>79.0</ele><time>2026-04-22T10:58:27.078Z</time></trkpt><trkpt lat="40.906155" lon="14.2847417"><ele>78.85714285714286</ele><time>2026-04-22T10:58:29.078Z</time></trkpt><trkpt lat="40.906225" lon="14.2847717"><ele>78.71428571428572</ele><time>2026-04-22T10:58:31.076Z</time></trkpt><trkpt lat="40.9062883" lon="14.2848"><ele>78.57142857142858</ele><time>2026-04-22T10:58:33.076Z</time></trkpt><trkpt lat="40.9063517" lon="14.28481"><ele>78.42857142857143</ele><time>2026-04-22T10:58:35.075Z</time></trkpt><trkpt lat="40.906445" lon="14.28485"><ele>78.28571428571428</ele><time>2026-04-22T10:58:38.078Z</time></trkpt><trkpt lat="40.9065117" lon="14.2848817"><ele>78.14285714285715</ele><time>2026-04-22T10:58:40.076Z</time></trkpt><trkpt lat="40.9065767" lon="14.2849333"><ele>78.0</ele><time>2026-04-22T10:58:42.08Z</time></trkpt><trkpt lat="40.9066533" lon="14.28498"><ele>78.0</ele><time>2026-04-22T10:58:44.08Z</time></trkpt><trkpt lat="40.90673" lon="14.2850317"><ele>78.0</ele><time>2026-04-22T10:58:46.08Z</time></trkpt><trkpt lat="40.9068133" lon="14.28509"><ele>78.0</ele><time>2026-04-22T10:58:48.078Z</time></trkpt><trkpt lat="40.9068967" lon="14.2851583"><ele>78.0</ele><time>2026-04-22T10:58:50.077Z</time></trkpt><trkpt lat="40.906975" lon="14.28523"><ele>78.0</ele><time>2026-04-22T10:58:52.077Z</time></trkpt><trkpt lat="40.90706" lon="14.2852983"><ele>77.2</ele><time>2026-04-22T10:58:54.076Z</time></trkpt><trkpt lat="40.9071383" lon="14.2853683"><ele>76.4</ele><time>2026-04-22T10:58:56.08Z</time></trkpt><trkpt lat="40.907225" lon="14.2854367"><ele>75.60000000000001</ele><time>2026-04-22T10:58:58.077Z</time></trkpt><trkpt lat="40.9073083" lon="14.2854983"><ele>74.8</ele><time>2026-04-22T10:59:00.079Z</time></trkpt><trkpt lat="40.9073867" lon="14.2855583"><ele>74.0</ele><time>2026-04-22T10:59:02.08Z</time></trkpt><trkpt lat="40.9075017" lon="14.2856517"><ele>73.66666666666667</ele><time>2026-04-22T10:59:05.077Z</time></trkpt><trkpt lat="40.9075767" lon="14.2857167"><ele>73.33333333333334</ele><time>2026-04-22T10:59:07.078Z</time></trkpt><trkpt lat="40.9076417" lon="14.2857667"><ele>73.0</ele><time>2026-04-22T10:59:09.079Z</time></trkpt><trkpt lat="40.9077" lon="14.2858083"><ele>72.66666666666667</ele><time>2026-04-22T10:59:11.077Z</time></trkpt><trkpt lat="40.907755" lon="14.2858583"><ele>72.33333333333333</ele><time>2026-04-22T10:59:13.078Z</time></trkpt><trkpt lat="40.9078283" lon="14.2859283"><ele>72.0</ele><time>2026-04-22T10:59:16.08Z</time></trkpt><trkpt lat="40.90791" lon="14.2859983"><ele>71.4</ele><time>2026-04-22T10:59:19.076Z</time></trkpt><trkpt lat="40.9079717" lon="14.2860483"><ele>70.80000000000001</ele><time>2026-04-22T10:59:21.077Z</time></trkpt><trkpt lat="40.90805" lon="14.2861217"><ele>70.2</ele><time>2026-04-22T10:59:23.077Z</time></trkpt><trkpt lat="40.9081383" lon="14.2861933"><ele>69.60000000000001</ele><time>2026-04-22T10:59:25.08Z</time></trkpt><trkpt lat="40.9082317" lon="14.2862683"><ele>69.0</ele><time>2026-04-22T10:59:27.079Z</time></trkpt><trkpt lat="40.9083333" lon="14.2863467"><ele>69.16666666666667</ele><time>2026-04-22T10:59:29.076Z</time></trkpt><trkpt lat="40.9084383" lon="14.28643"><ele>69.33333333333333</ele><time>2026-04-22T10:59:31.079Z</time></trkpt><trkpt lat="40.9084933" lon="14.286475"><ele>69.5</ele><time>2026-04-22T10:59:32.081Z</time></trkpt><trkpt lat="40.9085483" lon="14.28652"><ele>69.66666666666666</ele><time>2026-04-22T10:59:33.078Z</time></trkpt><trkpt lat="40.9086067" lon="14.2865683"><ele>69.83333333333333</ele><time>2026-04-22T10:59:34.077Z</time></trkpt><trkpt lat="40.908665" lon="14.286615"><ele>70.0</ele><time>2026-04-22T10:59:35.078Z</time></trkpt><trkpt lat="40.9087217" lon="14.2866567"><ele>70.0</ele><time>2026-04-22T10:59:36.078Z</time></trkpt><trkpt lat="40.9088217" lon="14.2867317"><ele>70.0</ele><time>2026-04-22T10:59:38.077Z</time></trkpt><trkpt lat="40.9089067" lon="14.2867983"><ele>70.0</ele><time>2026-04-22T10:59:40.079Z</time></trkpt><trkpt lat="40.908965" lon="14.2868533"><ele>70.0</ele><time>2026-04-22T10:59:42.078Z</time></trkpt><trkpt lat="40.9090267" lon="14.2869167"><ele>70.0</ele><time>2026-04-22T10:59:46.078Z</time></trkpt><trkpt lat="40.9091017" lon="14.2869567"><ele>70.0</ele><time>2026-04-22T10:59:49.078Z</time></trkpt><trkpt lat="40.9091683" lon="14.2870067"><ele>69.8</ele><time>2026-04-22T10:59:51.078Z</time></trkpt><trkpt lat="40.9092467" lon="14.287065"><ele>69.6</ele><time>2026-04-22T10:59:53.078Z</time></trkpt><trkpt lat="40.9093383" lon="14.2871317"><ele>69.4</ele><time>2026-04-22T10:59:55.079Z</time></trkpt><trkpt lat="40.9094317" lon="14.2872033"><ele>69.2</ele><time>2026-04-22T10:59:57.078Z</time></trkpt><trkpt lat="40.9095017" lon="14.287275"><ele>69.0</ele><time>2026-04-22T10:59:59.078Z</time></trkpt><trkpt lat="40.9095633" lon="14.2873233"><ele>69.0</ele><time>2026-04-22T11:00:01.076Z</time></trkpt><trkpt lat="40.9096433" lon="14.287375"><ele>69.0</ele><time>2026-04-22T11:00:04.077Z</time></trkpt><trkpt lat="40.9096167" lon="14.2872883"><ele>69.0</ele><time>2026-04-22T11:00:09.076Z</time></trkpt><trkpt lat="40.90955" lon="14.2872417"><ele>69.0</ele><time>2026-04-22T11:00:11.079Z</time></trkpt><trkpt lat="40.9094733" lon="14.2871883"><ele>69.0</ele><time>2026-04-22T11:00:13.077Z</time></trkpt><trkpt lat="40.9093933" lon="14.2871267"><ele>69.0</ele><time>2026-04-22T11:00:15.076Z</time></trkpt><trkpt lat="40.9093117" lon="14.28707"><ele>69.16666666666667</ele><time>2026-04-22T11:00:17.079Z</time></trkpt><trkpt lat="40.9092383" lon="14.2870117"><ele>69.33333333333333</ele><time>2026-04-22T11:00:19.078Z</time></trkpt><trkpt lat="40.9091617" lon="14.286955"><ele>69.5</ele><time>2026-04-22T11:00:21.078Z</time></trkpt><trkpt lat="40.9090917" lon="14.2869"><ele>69.66666666666666</ele><time>2026-04-22T11:00:23.078Z</time></trkpt><trkpt lat="40.90902" lon="14.28684"><ele>69.83333333333333</ele><time>2026-04-22T11:00:25.076Z</time></trkpt><trkpt lat="40.9089483" lon="14.2867783"><ele>70.0</ele><time>2026-04-22T11:00:27.076Z</time></trkpt><trkpt lat="40.90887" lon="14.2867133"><ele>70.0</ele><time>2026-04-22T11:00:29.076Z</time></trkpt><trkpt lat="40.9087883" lon="14.2866583"><ele>70.0</ele><time>2026-04-22T11:00:31.078Z</time></trkpt><trkpt lat="40.9087117" lon="14.2865967"><ele>70.0</ele><time>2026-04-22T11:00:33.078Z</time></trkpt><trkpt lat="40.9086333" lon="14.2865267"><ele>70.0</ele><time>2026-04-22T11:00:35.078Z</time></trkpt><trkpt lat="40.9085583" lon="14.2864583"><ele>70.0</ele><time>2026-04-22T11:00:37.078Z</time></trkpt><trkpt lat="40.90848" lon="14.28639"><ele>69.8</ele><time>2026-04-22T11:00:39.077Z</time></trkpt><trkpt lat="40.9083967" lon="14.2863167"><ele>69.6</ele><time>2026-04-22T11:00:41.078Z</time></trkpt><trkpt lat="40.9083183" lon="14.2862433"><ele>69.4</ele><time>2026-04-22T11:00:43.078Z</time></trkpt><trkpt lat="40.90824" lon="14.286175"><ele>69.2</ele><time>2026-04-22T11:00:45.078Z</time></trkpt><trkpt lat="40.9081667" lon="14.2861067"><ele>69.0</ele><time>2026-04-22T11:00:47.078Z</time></trkpt><trkpt lat="40.9080883" lon="14.2860417"><ele>69.0</ele><time>2026-04-22T11:00:49.076Z</time></trkpt><trkpt lat="40.9080133" lon="14.285975"><ele>69.0</ele><time>2026-04-22T11:00:51.077Z</time></trkpt><trkpt lat="40.9079333" lon="14.285905"><ele>69.0</ele><time>2026-04-22T11:00:53.078Z</time></trkpt><trkpt lat="40.907855" lon="14.285835"><ele>69.0</ele><time>2026-04-22T11:00:55.077Z</time></trkpt><trkpt lat="40.90778" lon="14.285775"><ele>69.0</ele><time>2026-04-22T11:00:57.077Z</time></trkpt><trkpt lat="40.9077" lon="14.285705"><ele>69.0</ele><time>2026-04-22T11:00:59.077Z</time></trkpt><trkpt lat="40.9076233" lon="14.2856383"><ele>69.0</ele><time>2026-04-22T11:01:01.078Z</time></trkpt><trkpt lat="40.9075467" lon="14.28557"><ele>69.0</ele><time>2026-04-22T11:01:03.078Z</time></trkpt><trkpt lat="40.9074667" lon="14.2855067"><ele>69.0</ele><time>2026-04-22T11:01:05.078Z</time></trkpt><trkpt lat="40.9073867" lon="14.28544"><ele>69.0</ele><time>2026-04-22T11:01:07.078Z</time></trkpt><trkpt lat="40.9073067" lon="14.2853667"><ele>70.0</ele><time>2026-04-22T11:01:09.078Z</time></trkpt><trkpt lat="40.907225" lon="14.2852967"><ele>71.0</ele><time>2026-04-22T11:01:11.077Z</time></trkpt><trkpt lat="40.907135" lon="14.2852383"><ele>72.0</ele><time>2026-04-22T11:01:13.078Z</time></trkpt><trkpt lat="40.9070567" lon="14.2851633"><ele>73.0</ele><time>2026-04-22T11:01:15.077Z</time></trkpt><trkpt lat="40.9069767" lon="14.2850917"><ele>74.0</ele><time>2026-04-22T11:01:17.077Z</time></trkpt><trkpt lat="40.906895" lon="14.2850267"><ele>74.0</ele><time>2026-04-22T11:01:19.076Z</time></trkpt><trkpt lat="40.9068083" lon="14.2849683"><ele>74.0</ele><time>2026-04-22T11:01:21.078Z</time></trkpt><trkpt lat="40.9067133" lon="14.2849133"><ele>74.0</ele><time>2026-04-22T11:01:23.078Z</time></trkpt><trkpt lat="40.906615" lon="14.2848667"><ele>74.0</ele><time>2026-04-22T11:01:25.077Z</time></trkpt><trkpt lat="40.9065133" lon="14.2848233"><ele>74.0</ele><time>2026-04-22T11:01:27.078Z</time></trkpt><trkpt lat="40.90641" lon="14.2847867"><ele>75.0</ele><time>2026-04-22T11:01:29.078Z</time></trkpt><trkpt lat="40.9063033" lon="14.2847583"><ele>76.0</ele><time>2026-04-22T11:01:31.076Z</time></trkpt><trkpt lat="40.9062" lon="14.284735"><ele>77.0</ele><time>2026-04-22T11:01:33.078Z</time></trkpt><trkpt lat="40.9060983" lon="14.28472"><ele>78.0</ele><time>2026-04-22T11:01:35.078Z</time></trkpt><trkpt lat="40.9059983" lon="14.2847067"><ele>79.0</ele><time>2026-04-22T11:01:37.077Z</time></trkpt><trkpt lat="40.9058967" lon="14.2846883"><ele>79.0</ele><time>2026-04-22T11:01:39.078Z</time></trkpt><trkpt lat="40.9058" lon="14.284685"><ele>79.0</ele><time>2026-04-22T11:01:41.079Z</time></trkpt><trkpt lat="40.9057083" lon="14.2846933"><ele>79.0</ele><time>2026-04-22T11:01:43.077Z</time></trkpt><trkpt lat="40.90562" lon="14.2847017"><ele>79.0</ele><time>2026-04-22T11:01:45.077Z</time></trkpt><trkpt lat="40.9055317" lon="14.2847233"><ele>79.0</ele><time>2026-04-22T11:01:47.076Z</time></trkpt><trkpt lat="40.9054383" lon="14.2847433"><ele>79.0</ele><time>2026-04-22T11:01:49.077Z</time></trkpt><trkpt lat="40.9053433" lon="14.28477"><ele>79.0</ele><time>2026-04-22T11:01:51.078Z</time></trkpt><trkpt lat="40.9052333" lon="14.2848017"><ele>79.0</ele><time>2026-04-22T11:01:53.077Z</time></trkpt><trkpt lat="40.9051383" lon="14.2848333"><ele>79.0</ele><time>2026-04-22T11:01:55.077Z</time></trkpt><trkpt lat="40.9050467" lon="14.2848517"><ele>79.0</ele><time>2026-04-22T11:01:57.077Z</time></trkpt><trkpt lat="40.90495" lon="14.28489"><ele>79.0</ele><time>2026-04-22T11:01:59.078Z</time></trkpt><trkpt lat="40.9048467" lon="14.2849417"><ele>79.0</ele><time>2026-04-22T11:02:01.078Z</time></trkpt><trkpt lat="40.90474" lon="14.2849683"><ele>79.0</ele><time>2026-04-22T11:02:03.077Z</time></trkpt><trkpt lat="40.9046333" lon="14.284985"><ele>79.0</ele><time>2026-04-22T11:02:05.076Z</time></trkpt><trkpt lat="40.9045267" lon="14.285015"><ele>79.0</ele><time>2026-04-22T11:02:07.078Z</time></trkpt><trkpt lat="40.90442" lon="14.2850433"><ele>79.0</ele><time>2026-04-22T11:02:09.078Z</time></trkpt><trkpt lat="40.90431" lon="14.2850733"><ele>79.0</ele><time>2026-04-22T11:02:11.076Z</time></trkpt><trkpt lat="40.9041983" lon="14.2851067"><ele>79.0</ele><time>2026-04-22T11:02:13.078Z</time></trkpt><trkpt lat="40.9040817" lon="14.28513"><ele>79.0</ele><time>2026-04-22T11:02:15.076Z</time></trkpt><trkpt lat="40.903965" lon="14.2851633"><ele>79.2</ele><time>2026-04-22T11:02:17.076Z</time></trkpt><trkpt lat="40.9038467" lon="14.2851967"><ele>79.4</ele><time>2026-04-22T11:02:19.076Z</time></trkpt><trkpt lat="40.903725" lon="14.28523"><ele>79.6</ele><time>2026-04-22T11:02:21.077Z</time></trkpt><trkpt lat="40.9036017" lon="14.2852733"><ele>79.8</ele><time>2026-04-22T11:02:23.076Z</time></trkpt><trkpt lat="40.9035383" lon="14.2852967"><ele>80.0</ele><time>2026-04-22T11:02:24.078Z</time></trkpt><trkpt lat="40.903475" lon="14.2853183"><ele>81.0</ele><time>2026-04-22T11:02:25.077Z</time></trkpt><trkpt lat="40.9033567" lon="14.2853517"><ele>82.0</ele><time>2026-04-22T11:02:27.075Z</time></trkpt><trkpt lat="40.90324" lon="14.2853833"><ele>83.0</ele><time>2026-04-22T11:02:29.078Z</time></trkpt><trkpt lat="40.9031283" lon="14.2854017"><ele>84.0</ele><time>2026-04-22T11:02:31.077Z</time></trkpt><trkpt lat="40.903015" lon="14.2854233"><ele>84.0</ele><time>2026-04-22T11:02:33.078Z</time></trkpt><trkpt lat="40.902905" lon="14.28545"><ele>84.0</ele><time>2026-04-22T11:02:35.077Z</time></trkpt><trkpt lat="40.9027883" lon="14.2854933"><ele>84.0</ele><time>2026-04-22T11:02:37.076Z</time></trkpt><trkpt lat="40.902675" lon="14.2855267"><ele>84.0</ele><time>2026-04-22T11:02:39.078Z</time></trkpt><trkpt lat="40.9025783" lon="14.2855633"><ele>84.4</ele><time>2026-04-22T11:02:41.077Z</time></trkpt><trkpt lat="40.9024867" lon="14.28558"><ele>84.80000000000001</ele><time>2026-04-22T11:02:43.077Z</time></trkpt><trkpt lat="40.902395" lon="14.2856017"><ele>85.19999999999999</ele><time>2026-04-22T11:02:45.078Z</time></trkpt><trkpt lat="40.9023" lon="14.285625"><ele>85.6</ele><time>2026-04-22T11:02:47.077Z</time></trkpt><trkpt lat="40.9022" lon="14.2856533"><ele>86.0</ele><time>2026-04-22T11:02:49.076Z</time></trkpt><trkpt lat="40.9020983" lon="14.28567"><ele>86.0</ele><time>2026-04-22T11:02:51.078Z</time></trkpt><trkpt lat="40.902" lon="14.2856833"><ele>86.0</ele><time>2026-04-22T11:02:53.076Z</time></trkpt><trkpt lat="40.901905" lon="14.2856917"><ele>86.0</ele><time>2026-04-22T11:02:55.077Z</time></trkpt><trkpt lat="40.9018217" lon="14.2857083"><ele>86.0</ele><time>2026-04-22T11:02:57.077Z</time></trkpt><trkpt lat="40.90175" lon="14.2857383"><ele>86.0</ele><time>2026-04-22T11:02:59.077Z</time></trkpt><trkpt lat="40.90166" lon="14.2857667"><ele>86.0</ele><time>2026-04-22T11:03:01.077Z</time></trkpt><trkpt lat="40.9015633" lon="14.28578"><ele>85.8</ele><time>2026-04-22T11:03:03.077Z</time></trkpt><trkpt lat="40.9014467" lon="14.2858183"><ele>85.6</ele><time>2026-04-22T11:03:05.075Z</time></trkpt><trkpt lat="40.9013317" lon="14.285845"><ele>85.4</ele><time>2026-04-22T11:03:07.077Z</time></trkpt><trkpt lat="40.90121" lon="14.28587"><ele>85.2</ele><time>2026-04-22T11:03:09.077Z</time></trkpt><trkpt lat="40.9011383" lon="14.2858767"><ele>85.0</ele><time>2026-04-22T11:03:10.076Z</time></trkpt><trkpt lat="40.90107" lon="14.2858867"><ele>85.0</ele><time>2026-04-22T11:03:11.076Z</time></trkpt><trkpt lat="40.9010017" lon="14.285905"><ele>85.0</ele><time>2026-04-22T11:03:12.078Z</time></trkpt><trkpt lat="40.900935" lon="14.2859283"><ele>85.0</ele><time>2026-04-22T11:03:13.077Z</time></trkpt><trkpt lat="40.9008717" lon="14.2859467"><ele>85.0</ele><time>2026-04-22T11:03:14.077Z</time></trkpt><trkpt lat="40.9008033" lon="14.2859683"><ele>85.0</ele><time>2026-04-22T11:03:15.077Z</time></trkpt><trkpt lat="40.900735" lon="14.2859867"><ele>85.0</ele><time>2026-04-22T11:03:16.075Z</time></trkpt><trkpt lat="40.9006633" lon="14.286"><ele>85.0</ele><time>2026-04-22T11:03:17.076Z</time></trkpt><trkpt lat="40.9006" lon="14.28599"><ele>85.2</ele><time>2026-04-22T11:03:18.077Z</time></trkpt><trkpt lat="40.9005367" lon="14.2859883"><ele>85.4</ele><time>2026-04-22T11:03:19.077Z</time></trkpt><trkpt lat="40.9004183" lon="14.2859883"><ele>85.6</ele><time>2026-04-22T11:03:21.078Z</time></trkpt><trkpt lat="40.9003217" lon="14.2859883"><ele>85.8</ele><time>2026-04-22T11:03:23.077Z</time></trkpt><trkpt lat="40.9002317" lon="14.2859717"><ele>86.0</ele><time>2026-04-22T11:03:25.076Z</time></trkpt><trkpt lat="40.9001483" lon="14.2859367"><ele>85.5</ele><time>2026-04-22T11:03:27.076Z</time></trkpt><trkpt lat="40.9000567" lon="14.2858983"><ele>85.0</ele><time>2026-04-22T11:03:29.077Z</time></trkpt><trkpt lat="40.8999567" lon="14.2858467"><ele>84.5</ele><time>2026-04-22T11:03:31.077Z</time></trkpt><trkpt lat="40.8998483" lon="14.28579"><ele>84.0</ele><time>2026-04-22T11:03:33.077Z</time></trkpt><trkpt lat="40.8997283" lon="14.2857217"><ele>84.0</ele><time>2026-04-22T11:03:35.076Z</time></trkpt><trkpt lat="40.8996617" lon="14.28569"><ele>84.0</ele><time>2026-04-22T11:03:36.077Z</time></trkpt><trkpt lat="40.89959" lon="14.2856433"><ele>84.0</ele><time>2026-04-22T11:03:37.076Z</time></trkpt><trkpt lat="40.89952" lon="14.285605"><ele>84.0</ele><time>2026-04-22T11:03:38.077Z</time></trkpt><trkpt lat="40.8994467" lon="14.2855683"><ele>84.0</ele><time>2026-04-22T11:03:39.078Z</time></trkpt><trkpt lat="40.8993783" lon="14.28553"><ele>84.0</ele><time>2026-04-22T11:03:40.078Z</time></trkpt><trkpt lat="40.8993133" lon="14.2855017"><ele>84.0</ele><time>2026-04-22T11:03:41.076Z</time></trkpt><trkpt lat="40.8992517" lon="14.2854767"><ele>83.83333333333333</ele><time>2026-04-22T11:03:42.078Z</time></trkpt><trkpt lat="40.8991667" lon="14.2854317"><ele>83.66666666666667</ele><time>2026-04-22T11:03:44.077Z</time></trkpt><trkpt lat="40.8991083" lon="14.285395"><ele>83.5</ele><time>2026-04-22T11:03:46.077Z</time></trkpt><trkpt lat="40.8990417" lon="14.2853617"><ele>83.33333333333334</ele><time>2026-04-22T11:03:48.076Z</time></trkpt><trkpt lat="40.89896" lon="14.2853317"><ele>83.16666666666667</ele><time>2026-04-22T11:03:50.076Z</time></trkpt><trkpt lat="40.89887" lon="14.2852967"><ele>83.0</ele><time>2026-04-22T11:03:52.077Z</time></trkpt><trkpt lat="40.8987783" lon="14.2852433"><ele>83.0</ele><time>2026-04-22T11:03:54.077Z</time></trkpt><trkpt lat="40.8986983" lon="14.2851617"><ele>83.0</ele><time>2026-04-22T11:03:56.077Z</time></trkpt><trkpt lat="40.898625" lon="14.2850733"><ele>83.0</ele><time>2026-04-22T11:03:58.078Z</time></trkpt><trkpt lat="40.8985583" lon="14.2849867"><ele>83.0</ele><time>2026-04-22T11:04:00.078Z</time></trkpt><trkpt lat="40.8984967" lon="14.2849067"><ele>83.0</ele><time>2026-04-22T11:04:02.078Z</time></trkpt><trkpt lat="40.89844" lon="14.2848317"><ele>82.5</ele><time>2026-04-22T11:04:04.077Z</time></trkpt><trkpt lat="40.89839" lon="14.2847633"><ele>82.0</ele><time>2026-04-22T11:04:06.077Z</time></trkpt><trkpt lat="40.89834" lon="14.2847017"><ele>81.5</ele><time>2026-04-22T11:04:08.077Z</time></trkpt><trkpt lat="40.8982867" lon="14.28462"><ele>81.0</ele><time>2026-04-22T11:04:10.075Z</time></trkpt><trkpt lat="40.8982133" lon="14.2845333"><ele>80.5</ele><time>2026-04-22T11:04:12.077Z</time></trkpt><trkpt lat="40.8981433" lon="14.284465"><ele>80.0</ele><time>2026-04-22T11:04:14.08Z</time></trkpt><trkpt lat="40.89809" lon="14.2844067"><ele>80.0</ele><time>2026-04-22T11:04:16.077Z</time></trkpt><trkpt lat="40.898" lon="14.2844433"><ele>80.0</ele><time>2026-04-22T11:04:19.078Z</time></trkpt><trkpt lat="40.897945" lon="14.284515"><ele>80.0</ele><time>2026-04-22T11:04:21.078Z</time></trkpt><trkpt lat="40.897885" lon="14.2845967"><ele>80.0</ele><time>2026-04-22T11:04:23.077Z</time></trkpt><trkpt lat="40.8978233" lon="14.2846883"><ele>80.0</ele><time>2026-04-22T11:04:25.079Z</time></trkpt><trkpt lat="40.8977733" lon="14.2847733"><ele>80.0</ele><time>2026-04-22T11:04:27.077Z</time></trkpt><trkpt lat="40.897715" lon="14.2848567"><ele>80.0</ele><time>2026-04-22T11:04:29.077Z</time></trkpt><trkpt lat="40.89766" lon="14.2849467"><ele>80.0</ele><time>2026-04-22T11:04:31.076Z</time></trkpt><trkpt lat="40.8975917" lon="14.2850367"><ele>80.0</ele><time>2026-04-22T11:04:33.078Z</time></trkpt><trkpt lat="40.897525" lon="14.2851333"><ele>80.0</ele><time>2026-04-22T11:04:35.077Z</time></trkpt><trkpt lat="40.8974633" lon="14.2852383"><ele>80.0</ele><time>2026-04-22T11:04:37.078Z</time></trkpt><trkpt lat="40.8973983" lon="14.285345"><ele>80.2</ele><time>2026-04-22T11:04:39.078Z</time></trkpt><trkpt lat="40.8973367" lon="14.2854467"><ele>80.4</ele><time>2026-04-22T11:04:41.078Z</time></trkpt><trkpt lat="40.8972667" lon="14.28554"><ele>80.6</ele><time>2026-04-22T11:04:43.077Z</time></trkpt><trkpt lat="40.8972" lon="14.2856417"><ele>80.8</ele><time>2026-04-22T11:04:45.076Z</time></trkpt><trkpt lat="40.89713" lon="14.2857467"><ele>81.0</ele><time>2026-04-22T11:04:47.078Z</time></trkpt><trkpt lat="40.8970633" lon="14.2858533"><ele>81.19999999999999</ele><time>2026-04-22T11:04:49.076Z</time></trkpt><trkpt lat="40.8969933" lon="14.285955"><ele>81.39999999999999</ele><time>2026-04-22T11:04:51.076Z</time></trkpt><trkpt lat="40.8969267" lon="14.2860617"><ele>81.6</ele><time>2026-04-22T11:04:53.075Z</time></trkpt><trkpt lat="40.8968583" lon="14.2861667"><ele>81.8</ele><time>2026-04-22T11:04:55.077Z</time></trkpt><trkpt lat="40.8967917" lon="14.28627"><ele>82.0</ele><time>2026-04-22T11:04:57.076Z</time></trkpt><trkpt lat="40.8967317" lon="14.2863667"><ele>81.8</ele><time>2026-04-22T11:04:59.077Z</time></trkpt><trkpt lat="40.89668" lon="14.2864417"><ele>81.6</ele><time>2026-04-22T11:05:01.077Z</time></trkpt><trkpt lat="40.8965967" lon="14.2864517"><ele>81.39999999999999</ele><time>2026-04-22T11:05:03.075Z</time></trkpt><trkpt lat="40.89649" lon="14.2864217"><ele>81.19999999999999</ele><time>2026-04-22T11:05:05.074Z</time></trkpt><trkpt lat="40.8963867" lon="14.28637"><ele>81.0</ele><time>2026-04-22T11:05:07.076Z</time></trkpt><trkpt lat="40.8962733" lon="14.2863417"><ele>80.8</ele><time>2026-04-22T11:05:09.076Z</time></trkpt><trkpt lat="40.8961567" lon="14.2863083"><ele>80.6</ele><time>2026-04-22T11:05:11.076Z</time></trkpt><trkpt lat="40.8960367" lon="14.2862733"><ele>80.4</ele><time>2026-04-22T11:05:13.079Z</time></trkpt><trkpt lat="40.8959133" lon="14.286265"><ele>80.2</ele><time>2026-04-22T11:05:15.077Z</time></trkpt><trkpt lat="40.89585" lon="14.2862633"><ele>80.0</ele><time>2026-04-22T11:05:16.077Z</time></trkpt><trkpt lat="40.8957867" lon="14.2862617"><ele>79.6</ele><time>2026-04-22T11:05:17.074Z</time></trkpt><trkpt lat="40.8956683" lon="14.2862417"><ele>79.2</ele><time>2026-04-22T11:05:19.076Z</time></trkpt><trkpt lat="40.89555" lon="14.2862233"><ele>78.8</ele><time>2026-04-22T11:05:21.076Z</time></trkpt><trkpt lat="40.8954867" lon="14.28622"><ele>78.4</ele><time>2026-04-22T11:05:22.076Z</time></trkpt><trkpt lat="40.89537" lon="14.2862333"><ele>78.0</ele><time>2026-04-22T11:05:24.075Z</time></trkpt><trkpt lat="40.8952617" lon="14.2862433"><ele>78.0</ele><time>2026-04-22T11:05:26.08Z</time></trkpt><trkpt lat="40.89516" lon="14.2862367"><ele>78.0</ele><time>2026-04-22T11:05:28.087Z</time></trkpt><trkpt lat="40.895055" lon="14.2862267"><ele>78.0</ele><time>2026-04-22T11:05:30.076Z</time></trkpt><trkpt lat="40.89499" lon="14.286225"><ele>78.0</ele><time>2026-04-22T11:05:31.076Z</time></trkpt><trkpt lat="40.8948867" lon="14.2862017"><ele>78.0</ele><time>2026-04-22T11:05:33.08Z</time></trkpt><trkpt lat="40.8947617" lon="14.2861867"><ele>78.4</ele><time>2026-04-22T11:05:35.077Z</time></trkpt><trkpt lat="40.8947" lon="14.286205"><ele>78.8</ele><time>2026-04-22T11:05:36.078Z</time></trkpt><trkpt lat="40.8945967" lon="14.2861633"><ele>79.2</ele><time>2026-04-22T11:05:38.075Z</time></trkpt><trkpt lat="40.8944967" lon="14.2861333"><ele>79.6</ele><time>2026-04-22T11:05:40.074Z</time></trkpt><trkpt lat="40.8944" lon="14.286105"><ele>80.0</ele><time>2026-04-22T11:05:42.077Z</time></trkpt><trkpt lat="40.8943183" lon="14.2860717"><ele>80.16666666666667</ele><time>2026-04-22T11:05:44.077Z</time></trkpt><trkpt lat="40.89423" lon="14.286055"><ele>80.33333333333334</ele><time>2026-04-22T11:05:46.074Z</time></trkpt><trkpt lat="40.894135" lon="14.2860417"><ele>80.5</ele><time>2026-04-22T11:05:48.078Z</time></trkpt><trkpt lat="40.894045" lon="14.2860367"><ele>80.66666666666667</ele><time>2026-04-22T11:05:50.076Z</time></trkpt><trkpt lat="40.893965" lon="14.2860317"><ele>80.83333333333333</ele><time>2026-04-22T11:05:52.073Z</time></trkpt><trkpt lat="40.8938933" lon="14.286005"><ele>81.0</ele><time>2026-04-22T11:05:54.075Z</time></trkpt><trkpt lat="40.893825" lon="14.2859733"><ele>81.0</ele><time>2026-04-22T11:05:56.077Z</time></trkpt><trkpt lat="40.893745" lon="14.2859483"><ele>81.0</ele><time>2026-04-22T11:05:58.075Z</time></trkpt><trkpt lat="40.89368" lon="14.2859417"><ele>81.0</ele><time>2026-04-22T11:06:00.073Z</time></trkpt><trkpt lat="40.8936183" lon="14.285925"><ele>81.0</ele><time>2026-04-22T11:06:02.075Z</time></trkpt><trkpt lat="40.8935417" lon="14.2859283"><ele>81.0</ele><time>2026-04-22T11:06:05.074Z</time></trkpt><trkpt lat="40.8935167" lon="14.2860367"><ele>81.0</ele><time>2026-04-22T11:06:09.073Z</time></trkpt><trkpt lat="40.8935517" lon="14.2861183"><ele>81.0</ele><time>2026-04-22T11:06:11.075Z</time></trkpt><trkpt lat="40.8935767" lon="14.2862133"><ele>81.0</ele><time>2026-04-22T11:06:13.074Z</time></trkpt><trkpt lat="40.8936" lon="14.2862933"><ele>81.0</ele><time>2026-04-22T11:06:15.076Z</time></trkpt><trkpt lat="40.893635" lon="14.2864083"><ele>81.0</ele><time>2026-04-22T11:06:18.073Z</time></trkpt><trkpt lat="40.8936517" lon="14.286495"><ele>81.0</ele><time>2026-04-22T11:06:20.075Z</time></trkpt><trkpt lat="40.8936683" lon="14.2865833"><ele>81.0</ele><time>2026-04-22T11:06:22.073Z</time></trkpt><trkpt lat="40.8936933" lon="14.28668"><ele>81.0</ele><time>2026-04-22T11:06:24.073Z</time></trkpt><trkpt lat="40.89372" lon="14.28677"><ele>81.0</ele><time>2026-04-22T11:06:26.074Z</time></trkpt><trkpt lat="40.89374" lon="14.2868533"><ele>80.8</ele><time>2026-04-22T11:06:28.075Z</time></trkpt><trkpt lat="40.8937717" lon="14.2869433"><ele>80.6</ele><time>2026-04-22T11:06:30.073Z</time></trkpt><trkpt lat="40.8938017" lon="14.2870733"><ele>80.4</ele><time>2026-04-22T11:06:33.073Z</time></trkpt><trkpt lat="40.893835" lon="14.2871683"><ele>80.2</ele><time>2026-04-22T11:06:35.074Z</time></trkpt><trkpt lat="40.8938683" lon="14.2872867"><ele>80.0</ele><time>2026-04-22T11:06:37.075Z</time></trkpt><trkpt lat="40.8939" lon="14.2874117"><ele>80.0</ele><time>2026-04-22T11:06:39.074Z</time></trkpt><trkpt lat="40.89393" lon="14.2875333"><ele>80.0</ele><time>2026-04-22T11:06:41.075Z</time></trkpt><trkpt lat="40.89396" lon="14.2876383"><ele>80.0</ele><time>2026-04-22T11:06:43.074Z</time></trkpt><trkpt lat="40.89398" lon="14.28774"><ele>80.0</ele><time>2026-04-22T11:06:46.075Z</time></trkpt><trkpt lat="40.893755" lon="14.2877619"><ele>80.0</ele><time>2026-04-22T11:07:42.376Z</time></trkpt><trkpt lat="40.893855" lon="14.2876617"><ele>80.0</ele><time>2026-04-22T11:08:14.076Z</time></trkpt><trkpt lat="40.8937501" lon="14.2877646"><ele>80.0</ele><time>2026-04-22T11:08:44Z</time></trkpt><trkpt lat="40.893815" lon="14.28776"><ele>80.0</ele><time>2026-04-22T11:09:56.076Z</time></trkpt><trkpt lat="40.89366" lon="14.2877567"><ele>80.0</ele><time>2026-04-22T11:11:04.075Z</time></trkpt><trkpt lat="40.89359" lon="14.2878817"><ele>80.0</ele><time>2026-04-22T11:11:24.076Z</time></trkpt><trkpt lat="40.8935283" lon="14.2879433"><ele>80.0</ele><time>2026-04-22T11:11:33.075Z</time></trkpt><trkpt lat="40.8935917" lon="14.2880083"><ele>80.0</ele><time>2026-04-22T11:11:48.075Z</time></trkpt><trkpt lat="40.8935233" lon="14.2879633"><ele>80.0</ele><time>2026-04-22T11:12:15.074Z</time></trkpt><trkpt lat="40.8934883" lon="14.2880383"><ele>80.0</ele><time>2026-04-22T11:12:20.074Z</time></trkpt><trkpt lat="40.8935783" lon="14.28807"><ele>80.0</ele><time>2026-04-22T11:12:27.074Z</time></trkpt><trkpt lat="40.893455" lon="14.28819"><ele>80.0</ele><time>2026-04-22T11:12:37.074Z</time></trkpt><trkpt lat="40.8934883" lon="14.288085"><ele>80.0</ele><time>2026-04-22T11:13:03.076Z</time></trkpt><trkpt lat="40.8936117" lon="14.2880083"><ele>80.0</ele><time>2026-04-22T11:13:22.075Z</time></trkpt><trkpt lat="40.893635" lon="14.28788"><ele>80.0</ele><time>2026-04-22T11:13:36.076Z</time></trkpt><trkpt lat="40.89357" lon="14.28795"><ele>80.0</ele><time>2026-04-22T11:13:52.076Z</time></trkpt><trkpt lat="40.8934983" lon="14.2879867"><ele>80.0</ele><time>2026-04-22T11:13:59.075Z</time></trkpt><trkpt lat="40.8934433" lon="14.288045"><ele>80.0</ele><time>2026-04-22T11:14:07.077Z</time></trkpt><trkpt lat="40.8935567" lon="14.288085"><ele>80.0</ele><time>2026-04-22T11:15:42.076Z</time></trkpt><trkpt lat="40.8935033" lon="14.2880383"><ele>80.0</ele><time>2026-04-22T11:16:11.075Z</time></trkpt><trkpt lat="40.8935533" lon="14.28814"><ele>80.0</ele><time>2026-04-22T11:16:29.076Z</time></trkpt><trkpt lat="40.8935817" lon="14.2882317"><ele>80.0</ele><time>2026-04-22T11:16:33.076Z</time></trkpt><trkpt lat="40.8936517" lon="14.2882717"><ele>80.0</ele><time>2026-04-22T11:16:44.076Z</time></trkpt><trkpt lat="40.893765" lon="14.2881233"><ele>80.0</ele><time>2026-04-22T11:17:05.076Z</time></trkpt><trkpt lat="40.8938183" lon="14.288025"><ele>80.0</ele><time>2026-04-22T11:17:31.076Z</time></trkpt><trkpt lat="40.8937404" lon="14.287999"><ele>80.0</ele><time>2026-04-22T11:19:21.65Z</time></trkpt><trkpt lat="40.8937488" lon="14.2878971"><ele>80.0</ele><time>2026-04-22T11:19:41.785Z</time></trkpt><trkpt lat="40.8937866" lon="14.2877852"><ele>80.0</ele><time>2026-04-22T11:20:42.641Z</time></trkpt><trkpt lat="40.8938018" lon="14.2878784"><ele>80.0</ele><time>2026-04-22T11:20:58.128Z</time></trkpt><trkpt lat="40.8936663" lon="14.2878335"><ele>80.0</ele><time>2026-04-22T11:21:33.182Z</time></trkpt><trkpt lat="40.8936126" lon="14.2877626"><ele>80.0</ele><time>2026-04-22T11:21:35.196Z</time></trkpt><trkpt lat="40.8936032" lon="14.2876279"><ele>80.0</ele><time>2026-04-22T11:21:38.215Z</time></trkpt><trkpt lat="40.8939551" lon="14.2878452"><ele>80.0</ele><time>2026-04-22T11:21:49.076Z</time></trkpt><trkpt lat="40.8940021" lon="14.2879494"><ele>80.0</ele><time>2026-04-22T11:21:50.077Z</time></trkpt><trkpt lat="40.8940357" lon="14.2880492"><ele>80.0</ele><time>2026-04-22T11:21:51.074Z</time></trkpt><trkpt lat="40.8940637" lon="14.2881486"><ele>80.0</ele><time>2026-04-22T11:21:52.075Z</time></trkpt><trkpt lat="40.8940912" lon="14.2882518"><ele>80.0</ele><time>2026-04-22T11:21:53.076Z</time></trkpt><trkpt lat="40.8941197" lon="14.2883566"><ele>80.0</ele><time>2026-04-22T11:21:54.075Z</time></trkpt><trkpt lat="40.8941497" lon="14.288464"><ele>79.83333333333334</ele><time>2026-04-22T11:21:55.074Z</time></trkpt><trkpt lat="40.894181" lon="14.288573"><ele>79.66666666666667</ele><time>2026-04-22T11:21:56.075Z</time></trkpt><trkpt lat="40.8942073" lon="14.2886833"><ele>79.5</ele><time>2026-04-22T11:21:57.074Z</time></trkpt><trkpt lat="40.8942348" lon="14.2887887"><ele>79.33333333333333</ele><time>2026-04-22T11:21:58.073Z</time></trkpt><trkpt lat="40.8942632" lon="14.2888929"><ele>79.16666666666666</ele><time>2026-04-22T11:21:59.076Z</time></trkpt><trkpt lat="40.8942934" lon="14.2889991"><ele>79.0</ele><time>2026-04-22T11:22:00.077Z</time></trkpt><trkpt lat="40.8943236" lon="14.2891097"><ele>78.83333333333333</ele><time>2026-04-22T11:22:01.074Z</time></trkpt><trkpt lat="40.8943503" lon="14.2892276"><ele>78.66666666666666</ele><time>2026-04-22T11:22:02.077Z</time></trkpt><trkpt lat="40.8943755" lon="14.2893449"><ele>78.5</ele><time>2026-04-22T11:22:03.076Z</time></trkpt><trkpt lat="40.8944036" lon="14.2894586"><ele>78.33333333333333</ele><time>2026-04-22T11:22:04.077Z</time></trkpt><trkpt lat="40.8944154" lon="14.2895722"><ele>78.16666666666667</ele><time>2026-04-22T11:22:05.077Z</time></trkpt><trkpt lat="40.8944136" lon="14.289683"><ele>78.0</ele><time>2026-04-22T11:22:06.075Z</time></trkpt><trkpt lat="40.8943974" lon="14.289792"><ele>77.83333333333333</ele><time>2026-04-22T11:22:07.074Z</time></trkpt><trkpt lat="40.8943757" lon="14.2899019"><ele>77.66666666666667</ele><time>2026-04-22T11:22:08.077Z</time></trkpt><trkpt lat="40.8943504" lon="14.2900159"><ele>77.5</ele><time>2026-04-22T11:22:09.077Z</time></trkpt><trkpt lat="40.8943197" lon="14.2901297"><ele>77.33333333333334</ele><time>2026-04-22T11:22:10.075Z</time></trkpt><trkpt lat="40.8942931" lon="14.2902431"><ele>77.16666666666667</ele><time>2026-04-22T11:22:11.076Z</time></trkpt><trkpt lat="40.8942669" lon="14.2903553"><ele>77.0</ele><time>2026-04-22T11:22:12.077Z</time></trkpt><trkpt lat="40.8942388" lon="14.2904589"><ele>77.0</ele><time>2026-04-22T11:22:13.075Z</time></trkpt><trkpt lat="40.8942128" lon="14.2905535"><ele>77.0</ele><time>2026-04-22T11:22:14.077Z</time></trkpt><trkpt lat="40.8941924" lon="14.2906358"><ele>77.0</ele><time>2026-04-22T11:22:15.075Z</time></trkpt><trkpt lat="40.8941428" lon="14.2907369"><ele>77.0</ele><time>2026-04-22T11:22:17.077Z</time></trkpt><trkpt lat="40.8940579" lon="14.2907006"><ele>77.0</ele><time>2026-04-22T11:22:21.077Z</time></trkpt><trkpt lat="40.8939695" lon="14.2905989"><ele>77.0</ele><time>2026-04-22T11:22:23.078Z</time></trkpt><trkpt lat="40.8939185" lon="14.290536"><ele>77.0</ele><time>2026-04-22T11:22:24.077Z</time></trkpt><trkpt lat="40.8938616" lon="14.290468"><ele>77.0</ele><time>2026-04-22T11:22:25.077Z</time></trkpt><trkpt lat="40.8937987" lon="14.2903981"><ele>77.0</ele><time>2026-04-22T11:22:26.076Z</time></trkpt><trkpt lat="40.8937267" lon="14.2903309"><ele>77.0</ele><time>2026-04-22T11:22:27.076Z</time></trkpt><trkpt lat="40.8936579" lon="14.2902636"><ele>77.0</ele><time>2026-04-22T11:22:28.075Z</time></trkpt><trkpt lat="40.8936008" lon="14.2901965"><ele>77.0</ele><time>2026-04-22T11:22:29.077Z</time></trkpt><trkpt lat="40.8935473" lon="14.2901311"><ele>77.0</ele><time>2026-04-22T11:22:30.076Z</time></trkpt><trkpt lat="40.8934972" lon="14.2900689"><ele>77.0</ele><time>2026-04-22T11:22:31.077Z</time></trkpt><trkpt lat="40.893397" lon="14.2899772"><ele>77.0</ele><time>2026-04-22T11:22:33.076Z</time></trkpt><trkpt lat="40.8933419" lon="14.2899337"><ele>77.0</ele><time>2026-04-22T11:22:34.076Z</time></trkpt><trkpt lat="40.8932825" lon="14.2898886"><ele>77.0</ele><time>2026-04-22T11:22:35.076Z</time></trkpt><trkpt lat="40.8932235" lon="14.2898327"><ele>77.0</ele><time>2026-04-22T11:22:36.077Z</time></trkpt><trkpt lat="40.8931662" lon="14.2897699"><ele>77.2</ele><time>2026-04-22T11:22:37.075Z</time></trkpt><trkpt lat="40.8931041" lon="14.2896962"><ele>77.4</ele><time>2026-04-22T11:22:38.076Z</time></trkpt><trkpt lat="40.8930408" lon="14.2896112"><ele>77.6</ele><time>2026-04-22T11:22:39.076Z</time></trkpt><trkpt lat="40.8929744" lon="14.2895203"><ele>77.8</ele><time>2026-04-22T11:22:40.075Z</time></trkpt><trkpt lat="40.8929031" lon="14.2894222"><ele>78.0</ele><time>2026-04-22T11:22:41.076Z</time></trkpt><trkpt lat="40.892826" lon="14.289328"><ele>78.0</ele><time>2026-04-22T11:22:42.076Z</time></trkpt><trkpt lat="40.892753" lon="14.2892355"><ele>78.0</ele><time>2026-04-22T11:22:43.077Z</time></trkpt><trkpt lat="40.8926825" lon="14.2891528"><ele>78.0</ele><time>2026-04-22T11:22:44.077Z</time></trkpt><trkpt lat="40.892618" lon="14.2890742"><ele>78.0</ele><time>2026-04-22T11:22:45.074Z</time></trkpt><trkpt lat="40.8925603" lon="14.2889927"><ele>78.0</ele><time>2026-04-22T11:22:46.074Z</time></trkpt><trkpt lat="40.8925025" lon="14.2889159"><ele>78.0</ele><time>2026-04-22T11:22:47.087Z</time></trkpt><trkpt lat="40.8924426" lon="14.2888408"><ele>77.83333333333333</ele><time>2026-04-22T11:22:48.075Z</time></trkpt><trkpt lat="40.8923837" lon="14.2887588"><ele>77.66666666666667</ele><time>2026-04-22T11:22:49.076Z</time></trkpt><trkpt lat="40.8923201" lon="14.2886791"><ele>77.5</ele><time>2026-04-22T11:22:50.076Z</time></trkpt><trkpt lat="40.8922641" lon="14.2885943"><ele>77.33333333333334</ele><time>2026-04-22T11:22:51.081Z</time></trkpt><trkpt lat="40.8922142" lon="14.2885123"><ele>77.16666666666667</ele><time>2026-04-22T11:22:52.075Z</time></trkpt><trkpt lat="40.8921606" lon="14.2884532"><ele>77.0</ele><time>2026-04-22T11:22:53.079Z</time></trkpt><trkpt lat="40.8920516" lon="14.2884744"><ele>77.0</ele><time>2026-04-22T11:22:55.074Z</time></trkpt><trkpt lat="40.8919939" lon="14.2885483"><ele>77.0</ele><time>2026-04-22T11:22:56.076Z</time></trkpt><trkpt lat="40.891937" lon="14.2886405"><ele>77.0</ele><time>2026-04-22T11:22:57.076Z</time></trkpt><trkpt lat="40.8918736" lon="14.2887344"><ele>77.0</ele><time>2026-04-22T11:22:58.074Z</time></trkpt><trkpt lat="40.8918113" lon="14.2888135"><ele>77.0</ele><time>2026-04-22T11:22:59.074Z</time></trkpt><trkpt lat="40.891751" lon="14.2888839"><ele>77.0</ele><time>2026-04-22T11:23:00.077Z</time></trkpt><trkpt lat="40.8916948" lon="14.2889369"><ele>77.2</ele><time>2026-04-22T11:23:01.076Z</time></trkpt><trkpt lat="40.8914967" lon="14.2889483"><ele>77.4</ele><time>2026-04-22T11:23:04.076Z</time></trkpt><trkpt lat="40.8914333" lon="14.2889533"><ele>77.6</ele><time>2026-04-22T11:23:05.077Z</time></trkpt><trkpt lat="40.8913617" lon="14.2889633"><ele>77.8</ele><time>2026-04-22T11:23:06.077Z</time></trkpt><trkpt lat="40.891295" lon="14.2890083"><ele>78.0</ele><time>2026-04-22T11:23:07.075Z</time></trkpt><trkpt lat="40.89123" lon="14.2890767"><ele>78.0</ele><time>2026-04-22T11:23:08.073Z</time></trkpt><trkpt lat="40.8911633" lon="14.2891467"><ele>78.0</ele><time>2026-04-22T11:23:09.074Z</time></trkpt><trkpt lat="40.89109" lon="14.2892267"><ele>78.0</ele><time>2026-04-22T11:23:10.074Z</time></trkpt><trkpt lat="40.8910117" lon="14.289305"><ele>78.0</ele><time>2026-04-22T11:23:11.073Z</time></trkpt><trkpt lat="40.8909333" lon="14.2893817"><ele>78.0</ele><time>2026-04-22T11:23:12.073Z</time></trkpt><trkpt lat="40.8908583" lon="14.289455"><ele>78.33333333333333</ele><time>2026-04-22T11:23:13.074Z</time></trkpt><trkpt lat="40.8907883" lon="14.2895133"><ele>78.66666666666667</ele><time>2026-04-22T11:23:14.074Z</time></trkpt><trkpt lat="40.8907133" lon="14.2895683"><ele>79.0</ele><time>2026-04-22T11:23:15.073Z</time></trkpt><trkpt lat="40.890645" lon="14.28962"><ele>79.33333333333334</ele><time>2026-04-22T11:23:16.074Z</time></trkpt><trkpt lat="40.8905733" lon="14.289655"><ele>79.66666666666667</ele><time>2026-04-22T11:23:17.073Z</time></trkpt><trkpt lat="40.8904583" lon="14.2896767"><ele>80.0</ele><time>2026-04-22T11:23:19.112Z</time></trkpt><trkpt lat="40.8903583" lon="14.2896283"><ele>80.0</ele><time>2026-04-22T11:23:21.073Z</time></trkpt><trkpt lat="40.890315" lon="14.2895533"><ele>80.0</ele><time>2026-04-22T11:23:22.076Z</time></trkpt><trkpt lat="40.890275" lon="14.28947"><ele>80.0</ele><time>2026-04-22T11:23:23.073Z</time></trkpt><trkpt lat="40.8901817" lon="14.2892783"><ele>80.0</ele><time>2026-04-22T11:23:25.075Z</time></trkpt><trkpt lat="40.890125" lon="14.2891917"><ele>80.0</ele><time>2026-04-22T11:23:26.073Z</time></trkpt></trkseg></trk></gpx>